Avery, Idaho
Current Conditions -  °F | °C
As of 7:53 AM on Friday 19 Dec 2014 (Local Time) from KMLP Reporting Station
Moderate Snow Moderate Snow  
Wind Chill: 26°   Ceiling: 100
Heat Index: 32°   Visibility: 0.25mi
Dew Point: 29°   Wind: 7mph
Humidity: 88%   Direction: NA
Pressure: 29.84"   Gusts: NA
Location:  47.25°N, 115.81°W
Report Text: KMLP 191553Z AUTO VRB06KT 1/4SM SN FG VV001 00/M02 A2984 RMK AO2 SLP078 P0004 T00001017
Loading
Personal Weather Stations






























Interactive Weather Map New forecast layout! Learn more

10-Day Weather Forecast

Advertisements
Track Severe Weather on mobile